Time;durP1;ratioP1;P1;durP2;ratioP2;P2;SDS_P1;SDS_P2;PMS_P1;PMS_P2;Temp;Humidity;BMP_temperature;BMP_pressure;BME280_temperature;BME280_humidity;BME280_pressure;Samples;Min_cycle;Max_cycle;Signal;HPM_P1;HPM_P2
2022/01/30 00:00:27;;;;;;;5.85;3.47;;;;;;;3.90;100.00;96023.28;4972621;28;20058;-62
2022/01/30 00:02:52;;;;;;;7.53;4.00;;;;;;;3.90;100.00;96023.28;4984843;23;20050;-69
2022/01/30 00:05:18;;;;;;;6.03;3.35;;;;;;;3.93;100.00;96020.25;4971422;28;20027;-69
2022/01/30 00:07:44;;;;;;;6.10;3.35;;;;;;;3.94;100.00;96011.28;4972523;28;20042;-68
2022/01/30 00:10:12;;;;;;;6.45;3.47;;;;;;;3.94;100.00;95994.56;4972652;28;20027;-68
2022/01/30 00:12:55;;;;;;;5.55;3.33;;;;;;;3.95;100.00;95999.66;4984973;28;20030;-68
2022/01/30 00:21:17;;;;;;;6.45;3.40;;;;;;;3.99;100.00;95997.41;4991767;28;20039;-68
2022/01/30 00:26:29;;;;;;;6.82;3.65;;;;;;;4.03;100.00;96006.63;4989205;28;20560;-68
2022/01/30 00:28:58;;;;;;;5.95;3.47;;;;;;;4.02;100.00;96013.75;4993289;28;20033;-68
2022/01/30 00:31:25;;;;;;;6.53;3.53;;;;;;;4.03;100.00;96009.28;4991948;28;20022;-69
2022/01/30 00:33:51;;;;;;;6.20;3.25;;;;;;;4.04;100.00;96000.31;4993218;28;20029;-69
2022/01/30 00:36:22;;;;;;;5.55;3.17;;;;;;;4.05;100.00;95996.63;4992588;28;20753;-68
2022/01/30 00:38:47;;;;;;;4.40;2.95;;;;;;;4.08;100.00;95993.56;4991824;28;20018;-68
2022/01/30 00:41:13;;;;;;;6.15;3.17;;;;;;;4.11;100.00;95992.34;4992952;28;20018;-68
2022/01/30 00:43:41;;;;;;;6.22;3.22;;;;;;;4.10;100.00;95980.91;4992936;28;20045;-68
2022/01/30 00:46:07;;;;;;;6.40;3.40;;;;;;;4.10;100.00;95977.44;4991536;28;20030;-68
2022/01/30 00:48:32;;;;;;;5.63;3.45;;;;;;;4.11;100.00;95974.59;4991681;28;20033;-69
2022/01/30 00:50:57;;;;;;;4.57;2.90;;;;;;;4.12;100.00;95980.72;4992902;28;20019;-68
2022/01/30 00:53:23;;;;;;;4.68;2.80;;;;;;;4.14;100.00;95976.06;4991508;28;20023;-68
2022/01/30 00:55:48;;;;;;;4.95;3.03;;;;;;;4.14;100.00;95978.69;4992882;28;20432;-68
2022/01/30 00:58:14;;;;;;;3.83;2.50;;;;;;;4.17;100.00;95975.63;4992858;28;20022;-69
2022/01/30 01:00:42;;;;;;;5.75;2.85;;;;;;;4.20;100.00;95983.19;4992885;28;20385;-69
2022/01/30 01:03:11;;;;;;;4.97;3.00;;;;;;;4.20;100.00;95977.88;4992500;28;20120;-68
2022/01/30 01:05:37;;;;;;;5.50;2.88;;;;;;;4.20;100.00;95972.56;5007956;28;20042;-68
2022/01/30 01:24:34;;;;;;;4.18;2.55;;;;;;;4.27;100.00;95963.59;4973124;28;20030;-70
2022/01/30 01:27:02;;;;;;;3.97;2.55;;;;;;;4.28;100.00;95969.72;4973239;28;20023;-68
2022/01/30 01:29:33;;;;;;;4.22;2.50;;;;;;;4.27;100.00;95960.97;4971989;28;20113;-68
2022/01/30 01:31:58;;;;;;;4.40;2.75;;;;;;;4.26;100.00;95969.94;4973022;28;20027;-68
2022/01/30 01:34:35;;;;;;;12.88;3.45;;;;;;;4.27;100.00;95968.09;4973052;28;20478;-68
2022/01/30 01:37:09;;;;;;;3.47;2.40;;;;;;;4.28;100.00;95975.03;4982093;28;20015;-68
2022/01/30 01:39:38;;;;;;;4.60;2.50;;;;;;;4.28;100.00;95981.16;4978739;28;20400;-68
2022/01/30 01:42:04;;;;;;;3.88;2.53;;;;;;;4.30;100.00;95970.34;4991106;28;20057;-69
2022/01/30 01:44:41;;;;;;;3.38;2.35;;;;;;;4.30;100.00;95980.94;4992219;28;20098;-69
2022/01/30 01:47:18;;;;;;;3.60;2.20;;;;;;;4.30;100.00;95981.75;4992384;28;20037;-68
2022/01/30 01:49:49;;;;;;;4.72;2.25;;;;;;;4.26;100.00;95991.16;4995195;28;20053;-68
2022/01/30 01:52:19;;;;;;;3.85;2.40;;;;;;;4.28;100.00;95993.59;4995637;28;20037;-69
2022/01/30 01:54:47;;;;;;;3.33;2.40;;;;;;;4.27;100.00;95987.47;4994573;28;20073;-68
2022/01/30 01:57:12;;;;;;;3.13;2.50;;;;;;;4.27;100.00;95984.00;4994337;28;20034;-69
2022/01/30 01:59:38;;;;;;;5.10;2.08;;;;;;;4.25;100.00;95983.41;4995808;28;20034;-68
2022/01/30 02:02:04;;;;;;;3.70;2.17;;;;;;;4.23;100.00;95994.22;4994193;28;20046;-69
2022/01/30 02:04:38;;;;;;;3.90;2.50;;;;;;;4.22;100.00;95991.75;4995487;28;20492;-68
2022/01/30 02:09:56;;;;;;;4.22;2.45;;;;;;;4.19;100.00;96002.75;4984372;28;20393;-69
2022/01/30 02:12:32;;;;;;;3.97;2.40;;;;;;;4.16;100.00;96000.53;4994193;28;20061;-69
2022/01/30 02:26:00;;;;;;;3.70;2.30;;;;;;;4.05;100.00;96004.59;4995339;28;20042;-68
2022/01/30 02:28:27;;;;;;;4.00;2.45;;;;;;;4.05;100.00;96008.03;4995217;28;20084;-69
2022/01/30 02:31:04;;;;;;;4.55;2.50;;;;;;;4.05;100.00;96009.88;4995144;28;20065;-68
2022/01/30 02:33:29;;;;;;;4.05;2.72;;;;;;;4.05;100.00;96013.34;5023578;28;20018;-68
2022/01/30 02:36:03;;;;;;;3.95;2.55;;;;;;;4.05;100.00;96008.03;4995037;28;20097;-68
2022/01/30 02:38:58;;;;;;;4.72;2.35;;;;;;;4.04;100.00;96009.06;5026654;28;20065;-69
2022/01/30 02:41:26;;;;;;;4.97;2.53;;;;;;;4.03;100.00;96009.28;4994863;28;20031;-69
2022/01/30 02:44:07;;;;;;;4.50;2.45;;;;;;;4.02;100.00;96005.81;4994849;28;20053;-69
2022/01/30 02:46:37;;;;;;;3.05;2.13;;;;;;;3.98;100.00;96001.91;4994808;28;20477;-68
2022/01/30 02:52:05;;;;;;;3.15;2.22;;;;;;;3.99;100.00;96008.84;4994823;28;20494;-68
2022/01/30 02:54:33;;;;;;;4.00;2.30;;;;;;;4.00;100.00;96014.97;4994708;28;20034;-69
2022/01/30 02:56:59;;;;;;;4.20;2.28;;;;;;;3.98;100.00;96014.34;4994641;28;20385;-69
2022/01/30 02:59:25;;;;;;;3.78;2.38;;;;;;;3.97;100.00;96010.88;4994500;28;20081;-68
2022/01/30 03:01:53;;;;;;;3.92;2.55;;;;;;;3.95;100.00;96020.06;4994195;28;20050;-69
2022/01/30 03:04:21;;;;;;;4.03;2.20;;;;;;;3.97;100.00;96023.31;4994606;28;20026;-68
2022/01/30 03:06:47;;;;;;;4.72;2.50;;;;;;;3.97;100.00;96025.97;4993547;28;20065;-68
2022/01/30 03:09:12;;;;;;;6.00;2.65;;;;;;;3.94;100.00;96021.88;4994436;28;20042;-68
2022/01/30 03:11:46;;;;;;;4.03;2.33;;;;;;;3.95;100.00;96023.53;4994266;28;20026;-69
2022/01/30 03:14:11;;;;;;;4.40;2.47;;;;;;;3.93;100.00;96030.03;4994285;28;20034;-68
2022/01/30 03:16:37;;;;;;;4.35;2.22;;;;;;;3.92;100.00;96037.19;4994249;28;20496;-69
2022/01/30 03:19:05;;;;;;;3.38;2.20;;;;;;;3.93;100.00;96043.28;4994250;28;20442;-69
2022/01/30 03:21:33;;;;;;;4.65;2.67;;;;;;;3.92;100.00;96039.84;4993888;28;20034;-69
2022/01/30 03:23:58;;;;;;;3.08;1.98;;;;;;;3.95;100.00;96043.91;4992915;28;20022;-68
2022/01/30 03:26:24;;;;;;;3.97;2.63;;;;;;;3.93;100.00;96044.13;4994197;28;20045;-68
2022/01/30 03:28:56;;;;;;;3.97;2.40;;;;;;;3.94;100.00;96048.41;4993987;28;20044;-68
2022/01/30 03:31:24;;;;;;;3.65;2.35;;;;;;;3.94;100.00;96051.03;4993972;28;20030;-68
2022/01/30 03:33:50;;;;;;;3.05;2.30;;;;;;;3.94;100.00;96047.59;4993957;28;20030;-69
2022/01/30 03:36:18;;;;;;;4.13;2.40;;;;;;;3.95;100.00;96054.50;4992859;28;20109;-68
2022/01/30 03:38:43;;;;;;;3.85;2.42;;;;;;;3.95;100.00;96062.47;4993937;28;20429;-69
2022/01/30 03:41:15;;;;;;;5.07;2.47;;;;;;;3.96;100.00;96061.44;4992314;28;20084;-69
2022/01/30 03:43:40;;;;;;;4.05;2.15;;;;;;;3.95;100.00;96060.63;4993787;28;20034;-68
2022/01/30 03:46:26;;;;;;;4.18;2.53;;;;;;;3.98;100.00;96054.09;4993738;28;20100;-68
2022/01/30 03:48:51;;;;;;;4.00;2.50;;;;;;;3.96;100.00;96051.66;4992825;28;20027;-68
2022/01/30 03:51:17;;;;;;;5.18;2.10;;;;;;;3.95;100.00;96050.03;4993649;28;20026;-68
2022/01/30 03:53:42;;;;;;;2.90;2.33;;;;;;;3.94;100.00;96050.22;4993555;28;20097;-68
2022/01/30 03:56:14;;;;;;;4.18;2.40;;;;;;;3.95;100.00;96050.03;4992225;28;20519;-69
2022/01/30 03:59:04;;;;;;;3.08;2.00;;;;;;;3.93;100.00;96054.72;4993557;28;20105;-68
2022/01/30 04:01:35;;;;;;;3.15;2.20;;;;;;;3.95;100.00;96052.69;4992062;28;20026;-69
2022/01/30 04:04:03;;;;;;;5.00;2.60;;;;;;;3.96;100.00;96056.16;4992107;28;20081;-68
2022/01/30 04:06:32;;;;;;;3.60;2.05;;;;;;;3.97;100.00;96066.53;4993267;28;20425;-68
2022/01/30 04:08:57;;;;;;;3.30;2.20;;;;;;;3.98;100.00;96062.06;4993451;28;20033;-68
2022/01/30 04:11:24;;;;;;;3.78;2.33;;;;;;;3.97;100.00;96065.72;4992802;28;20492;-69
2022/01/30 04:13:49;;;;;;;3.72;2.25;;;;;;;3.96;100.00;96062.25;4992402;28;20471;-69
2022/01/30 04:16:15;;;;;;;4.18;2.20;;;;;;;3.95;100.00;96065.94;4993434;28;20026;-68
2022/01/30 04:18:43;;;;;;;3.97;2.25;;;;;;;3.97;100.00;96065.72;4993143;28;20037;-68
2022/01/30 04:21:11;;;;;;;3.47;2.40;;;;;;;3.97;100.00;96068.38;4993184;28;20018;-69
2022/01/30 04:23:39;;;;;;;3.40;2.17;;;;;;;3.96;100.00;96070.22;4993211;28;20081;-68
2022/01/30 04:26:10;;;;;;;2.83;2.13;;;;;;;3.98;100.00;96072.66;4993069;28;20023;-69
2022/01/30 04:28:38;;;;;;;3.15;1.98;;;;;;;3.99;100.00;96075.09;4993511;28;20508;-69
2022/01/30 04:31:03;;;;;;;3.92;2.10;;;;;;;3.95;100.00;96068.59;4993013;28;20454;-68
2022/01/30 04:33:29;;;;;;;3.28;2.00;;;;;;;3.96;100.00;96072.88;4992908;28;20061;-68
2022/01/30 04:35:56;;;;;;;3.80;2.35;;;;;;;3.99;100.00;96069.81;4992981;28;20022;-69
2022/01/30 04:38:29;;;;;;;3.17;2.08;;;;;;;3.99;100.00;96074.28;4991867;28;20032;-68
2022/01/30 04:41:21;;;;;;;;;;;;;;;3.99;100.00;96074.28;4993387;28;20030;-68
2022/01/30 04:52:20;;;;;;;4.10;2.00;;;;;;;4.04;100.00;96080.66;4991162;28;20037;-68
2022/01/30 04:55:35;;;;;;;4.28;2.38;;;;;;;4.06;100.00;96080.44;4990217;28;20074;-66
2022/01/30 05:05:56;;;;;;;2.75;1.65;;;;;;;4.11;100.00;96085.13;4992647;28;20069;-69
2022/01/30 05:08:24;;;;;;;2.83;2.10;;;;;;;4.11;100.00;96079.81;4992828;28;20080;-69
2022/01/30 05:10:50;;;;;;;3.85;2.05;;;;;;;4.10;100.00;96089.63;4992566;28;20378;-68
2022/01/30 05:13:22;;;;;;;3.10;2.10;;;;;;;4.08;100.00;96076.56;4991111;28;20122;-68
2022/01/30 05:15:50;;;;;;;3.35;2.20;;;;;;;4.12;100.00;96092.06;4992959;28;20019;-68
2022/01/30 05:18:21;;;;;;;3.20;2.05;;;;;;;4.11;100.00;96088.59;4992824;28;20026;-68
2022/01/30 05:20:50;;;;;;;2.33;1.83;;;;;;;4.13;100.00;96089.25;4992725;28;20022;-68
2022/01/30 05:23:16;;;;;;;3.15;2.08;;;;;;;4.12;100.00;96076.97;4993003;28;20433;-68
2022/01/30 05:25:46;;;;;;;2.72;2.05;;;;;;;4.14;100.00;96079.44;4996201;28;20037;-68
2022/01/30 05:28:12;;;;;;;4.18;2.22;;;;;;;4.14;100.00;96082.91;4996288;28;20031;-68
2022/01/30 05:30:38;;;;;;;2.67;2.10;;;;;;;4.13;100.00;96085.78;4996028;28;20033;-69
2022/01/30 05:33:06;;;;;;;4.65;2.22;;;;;;;4.14;100.00;96084.75;5027669;28;20121;-69
2022/01/30 05:35:38;;;;;;;7.05;2.47;;;;;;;4.14;100.00;96090.88;4996067;28;20101;-69
2022/01/30 05:38:04;;;;;;;2.40;1.65;;;;;;;4.14;100.00;96093.53;4996212;28;20444;-68
2022/01/30 05:40:31;;;;;;;3.03;2.00;;;;;;;4.13;100.00;96093.72;4996021;28;20109;-68
2022/01/30 05:42:58;;;;;;;4.75;2.10;;;;;;;4.13;100.00;96091.91;4994827;28;20022;-68
2022/01/30 05:47:56;;;;;;;4.78;2.30;;;;;;;4.13;100.00;96085.78;4996305;28;20076;-69
2022/01/30 05:50:22;;;;;;;4.55;2.00;;;;;;;4.13;100.00;96089.25;4996074;28;20045;-68
2022/01/30 05:52:53;;;;;;;2.65;1.98;;;;;;;4.11;100.00;96085.13;4995886;28;20038;-69
2022/01/30 05:55:18;;;;;;;6.30;2.17;;;;;;;4.10;100.00;96078.19;4994592;28;20029;-69
2022/01/30 05:57:44;;;;;;;3.65;2.20;;;;;;;4.09;100.00;96082.69;4995713;28;20030;-69
2022/01/30 06:00:13;;;;;;;4.15;2.13;;;;;;;4.06;100.00;96073.31;4995715;28;20026;-68
2022/01/30 06:02:43;;;;;;;3.47;2.40;;;;;;;4.03;100.00;96068.41;5001127;23;20078;-65
2022/01/30 06:05:13;;;;;;;3.30;2.33;;;;;;;4.04;100.00;96070.03;4973848;28;20023;-64
2022/01/30 06:07:51;;;;;;;3.58;2.17;;;;;;;4.05;100.00;96070.84;4975548;28;20030;-64
2022/01/30 06:10:17;;;;;;;3.97;2.00;;;;;;;4.07;100.00;96077.59;4976400;28;20027;-65
2022/01/30 06:12:43;;;;;;;3.72;2.22;;;;;;;4.10;100.00;96086.16;4984313;28;20112;-65
2022/01/30 06:15:09;;;;;;;4.25;2.55;;;;;;;4.10;100.00;96078.19;4994353;28;20054;-65
2022/01/30 06:17:42;;;;;;;3.72;2.22;;;;;;;4.08;100.00;96078.41;4995534;28;20118;-65
2022/01/30 06:20:08;;;;;;;2.75;1.92;;;;;;;4.02;100.00;96065.97;4994183;28;20030;-65
2022/01/30 06:22:34;;;;;;;3.17;2.40;;;;;;;3.96;100.00;96075.50;4995422;28;20037;-65
2022/01/30 06:25:00;;;;;;;2.38;1.65;;;;;;;3.90;100.00;96075.47;4995440;28;20385;-65
2022/01/30 06:27:28;;;;;;;2.72;1.95;;;;;;;3.83;100.00;96069.34;4995517;28;20037;-65
2022/01/30 06:29:56;;;;;;;3.55;2.28;;;;;;;3.77;100.00;96069.13;4995270;28;20018;-65
2022/01/30 06:32:22;;;;;;;3.85;2.10;;;;;;;3.72;100.00;96070.75;4993835;28;20026;-65
2022/01/30 06:34:50;;;;;;;2.45;1.58;;;;;;;3.72;100.00;96078.69;4994724;28;20044;-65
2022/01/30 06:37:16;;;;;;;3.33;1.95;;;;;;;3.75;100.00;96073.81;4995278;28;20460;-65
2022/01/30 06:39:41;;;;;;;3.50;2.13;;;;;;;3.78;100.00;96077.88;4993737;28;20030;-65
2022/01/30 06:42:16;;;;;;;4.65;2.60;;;;;;;3.81;100.00;96085.47;4993747;28;20026;-65
2022/01/30 06:44:45;;;;;;;4.07;2.45;;;;;;;3.82;100.00;96089.75;4994921;28;20058;-65
2022/01/30 06:47:12;;;;;;;3.25;2.10;;;;;;;3.85;100.00;96088.53;4995022;28;20367;-65
2022/01/30 06:49:38;;;;;;;3.28;2.08;;;;;;;3.86;100.00;96087.50;4993758;28;20022;-65
2022/01/30 06:52:09;;;;;;;3.50;1.98;;;;;;;3.92;100.00;96099.97;4994873;28;20033;-65
2022/01/30 06:54:37;;;;;;;4.20;2.25;;;;;;;3.91;100.00;96104.47;4994974;28;20113;-65
2022/01/30 06:57:04;;;;;;;2.65;2.08;;;;;;;3.95;100.00;96103.03;4992552;28;20026;-63
2022/01/30 06:59:29;;;;;;;4.13;2.25;;;;;;;3.97;100.00;96110.78;4994138;28;20396;-64
2022/01/30 07:01:54;;;;;;;4.60;2.60;;;;;;;4.01;100.00;96112.84;4992708;28;20113;-65
2022/01/30 07:04:20;;;;;;;4.47;2.47;;;;;;;4.01;100.00;96118.13;4993350;28;20511;-65
2022/01/30 07:06:48;;;;;;;3.95;2.38;;;;;;;4.04;100.00;96124.91;4992577;28;20026;-65
2022/01/30 07:09:13;;;;;;;3.65;2.50;;;;;;;4.04;100.00;96123.06;4993288;28;20031;-65
2022/01/30 07:11:39;;;;;;;3.15;2.08;;;;;;;4.06;100.00;96123.69;4992435;28;20382;-64
2022/01/30 07:14:04;;;;;;;2.95;2.20;;;;;;;4.10;100.00;96123.28;4991708;28;20427;-65
2022/01/30 07:16:30;;;;;;;3.67;2.20;;;;;;;4.10;100.00;96126.75;4993846;28;20127;-65
2022/01/30 07:18:55;;;;;;;3.63;2.30;;;;;;;4.12;100.00;96127.34;4991546;28;20109;-64
2022/01/30 07:21:20;;;;;;;5.00;2.20;;;;;;;4.13;100.00;96128.19;4993298;28;20033;-66
2022/01/30 07:23:46;;;;;;;3.83;2.28;;;;;;;4.15;100.00;96124.31;4993357;28;20030;-65
2022/01/30 07:26:11;;;;;;;4.35;2.30;;;;;;;4.15;100.00;96132.28;4992400;28;20425;-65
2022/01/30 07:28:36;;;;;;;5.18;2.83;;;;;;;4.17;100.00;96132.06;4993182;28;20076;-65
2022/01/30 07:31:02;;;;;;;3.42;2.10;;;;;;;4.18;100.00;96131.88;4992597;28;20086;-65
2022/01/30 07:33:27;;;;;;;2.90;2.20;;;;;;;4.19;100.00;96133.50;4990748;28;20022;-66
2022/01/30 07:35:55;;;;;;;4.10;2.42;;;;;;;4.22;100.00;96137.59;4993833;28;20033;-65
2022/01/30 07:38:21;;;;;;;3.83;2.28;;;;;;;4.22;100.00;96134.94;4992462;28;20032;-64
2022/01/30 07:40:47;;;;;;;3.30;2.25;;;;;;;4.24;100.00;96146.19;4992482;28;20022;-65
2022/01/30 07:43:12;;;;;;;3.78;2.03;;;;;;;4.24;100.00;96149.66;4993382;28;20065;-65
2022/01/30 07:45:38;;;;;;;4.43;2.30;;;;;;;4.25;100.00;96145.16;4991956;28;20066;-65
2022/01/30 07:48:03;;;;;;;3.75;2.20;;;;;;;4.27;100.00;96133.34;4992058;28;20497;-65
2022/01/30 07:50:29;;;;;;;3.67;2.28;;;;;;;4.31;100.00;96139.03;4993011;28;20056;-65
2022/01/30 07:52:54;;;;;;;4.13;2.30;;;;;;;4.31;100.00;96145.16;4993126;28;20478;-65
2022/01/30 07:55:22;;;;;;;3.10;2.33;;;;;;;4.33;100.00;96137.00;4992799;28;20026;-66
2022/01/30 07:57:48;;;;;;;2.42;1.73;;;;;;;4.36;100.00;96136.63;4991503;28;20014;-66
2022/01/30 08:00:14;;;;;;;4.72;2.50;;;;;;;4.38;100.00;96133.78;4992872;28;20088;-65
2022/01/30 08:02:39;;;;;;;3.38;2.28;;;;;;;4.39;100.00;96136.22;4992132;28;20050;-65
2022/01/30 08:05:05;;;;;;;3.45;2.30;;;;;;;4.42;100.00;96140.31;4991694;28;20022;-65
2022/01/30 08:07:31;;;;;;;3.22;2.30;;;;;;;4.42;100.00;96141.13;4990175;28;20068;-65
2022/01/30 08:09:57;;;;;;;4.05;2.38;;;;;;;4.43;100.00;96137.44;4989980;28;20061;-65
2022/01/30 08:12:23;;;;;;;3.80;2.10;;;;;;;4.44;100.00;96144.38;4974566;28;20054;-65
2022/01/30 08:14:48;;;;;;;4.05;2.50;;;;;;;4.44;100.00;96148.88;4990332;28;20026;-65
2022/01/30 08:17:23;;;;;;;4.82;2.38;;;;;;;4.46;100.00;96157.47;4992571;28;20385;-65
2022/01/30 08:19:51;;;;;;;3.22;1.98;;;;;;;4.45;100.00;96146.03;4993069;28;20026;-65
2022/01/30 08:22:17;;;;;;;3.78;2.53;;;;;;;4.49;100.00;96141.16;4992347;28;20027;-65
2022/01/30 08:24:43;;;;;;;3.75;2.13;;;;;;;4.51;100.00;96150.53;4989838;28;20495;-65
2022/01/30 08:27:08;;;;;;;2.95;1.80;;;;;;;4.52;100.00;96148.69;4992966;28;20500;-65
2022/01/30 08:29:34;;;;;;;3.65;2.08;;;;;;;4.55;100.00;96140.31;4991247;28;20034;-65
2022/01/30 08:31:59;;;;;;;3.17;2.13;;;;;;;4.56;100.00;96160.56;4992300;28;20045;-65
2022/01/30 08:34:26;;;;;;;3.35;2.30;;;;;;;4.60;100.00;96156.47;4990445;28;20023;-64
2022/01/30 08:36:51;;;;;;;2.60;1.58;;;;;;;4.63;100.00;96161.38;4986618;28;20102;-64
2022/01/30 08:39:17;;;;;;;3.03;2.08;;;;;;;4.66;100.00;96166.25;4991769;28;20113;-65
2022/01/30 08:41:42;;;;;;;2.13;1.63;;;;;;;4.74;100.00;96170.56;4991289;28;20028;-64
2022/01/30 08:44:08;;;;;;;3.13;2.00;;;;;;;4.80;100.00;96173.25;4992912;28;20034;-66
2022/01/30 08:46:33;;;;;;;2.97;1.90;;;;;;;4.84;100.00;96171.81;4992711;28;20077;-65
2022/01/30 08:48:59;;;;;;;4.13;1.98;;;;;;;4.92;100.00;96178.78;4993540;28;20122;-65
2022/01/30 08:51:24;;;;;;;3.20;2.13;;;;;;;4.98;100.00;96185.09;4992963;28;20026;-65
2022/01/30 08:53:50;;;;;;;2.63;1.70;;;;;;;4.98;100.00;96179.78;4990525;28;20097;-64
2022/01/30 08:56:15;;;;;;;2.78;1.70;;;;;;;5.04;100.00;96184.31;4990639;28;20025;-64
2022/01/30 08:58:40;;;;;;;3.03;1.80;;;;;;;5.11;100.00;96180.66;4991872;28;20408;-65
2022/01/30 09:01:06;;;;;;;2.67;1.60;;;;;;;5.20;100.00;96191.84;4995454;28;20081;-65
2022/01/30 09:03:31;;;;;;;2.17;1.50;;;;;;;5.31;100.00;96180.63;4995794;28;20065;-65
2022/01/30 09:05:57;;;;;;;1.90;1.40;;;;;;;5.45;100.00;96176.97;4995875;28;20428;-66
2022/01/30 09:08:22;;;;;;;1.90;1.30;;;;;;;5.65;100.00;96178.78;4995829;28;20026;-65
2022/01/30 09:10:49;;;;;;;1.60;1.10;;;;;;;5.81;100.00;96168.50;4995741;28;20473;-65
2022/01/30 09:13:15;;;;;;;1.50;1.10;;;;;;;5.91;100.00;96167.28;4995845;28;20513;-65
2022/01/30 09:15:42;;;;;;;1.50;1.10;;;;;;;5.96;100.00;96154.97;4967417;28;20041;-65
2022/01/30 09:18:10;;;;;;;1.75;1.25;;;;;;;6.04;100.00;96148.63;4996145;28;20125;-65
2022/01/30 09:20:37;;;;;;;1.88;1.10;;;;;;;6.16;100.00;96146.13;4991728;28;20564;-64
2022/01/30 09:23:03;;;;;;;2.80;1.05;;;;;;;6.30;100.00;96143.22;4993837;28;20076;-65
2022/01/30 09:25:31;;;;;;;2.45;1.45;;;;;;;6.38;100.00;96126.97;4995637;28;20026;-65
2022/01/30 09:27:56;;;;;;;1.08;0.95;;;;;;;6.51;100.00;96126.13;4994619;28;20054;-65
2022/01/30 09:30:22;;;;;;;2.70;1.00;;;;;;;6.51;100.00;96126.13;4994459;28;20111;-65
2022/01/30 09:32:48;;;;;;;1.70;0.95;;;;;;;6.43;100.00;96109.56;4995266;28;20030;-64
2022/01/30 09:35:14;;;;;;;1.45;0.98;;;;;;;6.50;100.00;96108.50;4994880;28;20028;-64
2022/01/30 09:37:39;;;;;;;1.25;0.85;;;;;;;6.54;100.00;96108.91;4995704;28;20389;-65
2022/01/30 09:40:06;;;;;;;2.63;0.80;;;;;;;6.59;100.00;96101.06;4994009;28;20026;-65
2022/01/30 09:42:32;;;;;;;2.17;1.10;;;;;;;6.66;100.00;96096.53;4995172;28;20539;-64
2022/01/30 09:45:03;;;;;;;1.63;1.15;;;;;;;6.63;100.00;96088.97;4992732;28;20026;-62
2022/01/30 09:47:29;;;;;;;1.40;1.00;;;;;;;6.56;100.00;96088.19;4994207;28;20034;-65
2022/01/30 09:49:56;;;;;;;3.03;1.08;;;;;;;6.56;100.00;96078.38;4994449;28;20101;-64
2022/01/30 09:52:21;;;;;;;3.03;1.10;;;;;;;6.58;100.00;96078.97;4995165;28;20093;-66
2022/01/30 09:54:48;;;;;;;1.70;1.00;;;;;;;6.62;100.00;96076.66;4993581;28;20022;-66
2022/01/30 09:57:16;;;;;;;1.70;0.90;;;;;;;6.55;100.00;96075.91;4987675;28;20421;-65
2022/01/30 09:59:42;;;;;;;1.30;0.90;;;;;;;6.49;100.00;96074.09;4992032;28;20097;-65
2022/01/30 10:02:08;;;;;;;1.40;0.98;;;;;;;6.47;100.00;96065.53;4992347;28;20112;-65
2022/01/30 10:04:35;;;;;;;2.78;1.20;;;;;;;6.56;100.00;96066.91;4993740;28;20061;-64
2022/01/30 10:07:11;;;;;;;1.77;1.08;;;;;;;6.62;100.00;96060.69;4991920;28;20026;-64
2022/01/30 10:09:43;;;;;;;1.90;1.08;;;;;;;6.67;100.00;96058.22;4992233;28;20397;-65
2022/01/30 10:12:20;;;;;;;2.20;1.40;;;;;;;6.55;100.00;96054.63;4994754;28;20389;-64
2022/01/30 10:15:06;;;;;;;1.50;1.40;;;;;;;6.57;100.00;96052.56;4991481;28;20026;-64
2022/01/30 10:17:39;;;;;;;2.38;1.30;;;;;;;6.62;100.00;96050.91;4992393;28;20026;-65
2022/01/30 10:20:13;;;;;;;2.47;1.42;;;;;;;6.57;100.00;96041.91;4991459;28;20041;-64
2022/01/30 10:22:54;;;;;;;2.38;1.13;;;;;;;6.49;100.00;96048.31;4993431;28;20038;-65
2022/01/30 10:25:29;;;;;;;1.88;1.23;;;;;;;6.49;100.00;96044.84;4989924;28;20042;-65
2022/01/30 10:28:07;;;;;;;3.08;1.50;;;;;;;6.52;100.00;96042.56;4993413;28;20073;-65
2022/01/30 10:30:49;;;;;;;3.63;1.40;;;;;;;6.69;100.00;96045.50;4994138;28;20026;-65
2022/01/30 10:33:16;;;;;;;2.08;1.40;;;;;;;6.89;100.00;96040.84;4994016;28;20530;-65
2022/01/30 10:35:57;;;;;;;1.70;1.30;;;;;;;6.97;100.00;96034.44;4995003;28;20057;-64
2022/01/30 10:38:30;;;;;;;2.45;1.30;;;;;;;6.98;100.00;96031.53;4995148;28;20041;-65
2022/01/30 10:41:10;;;;;;;2.03;1.13;;;;;;;6.99;100.00;96029.69;4995254;28;20060;-65
2022/01/30 10:44:06;;;;;;;1.40;0.98;;;;;;;6.98;100.00;96028.88;4995154;28;20064;-65
2022/01/30 10:46:40;;;;;;;2.22;1.17;;;;;;;6.99;100.00;96024.38;4993787;28;20026;-65
2022/01/30 10:49:16;;;;;;;4.25;1.13;;;;;;;7.01;100.00;96022.28;4995072;28;20495;-65
2022/01/30 10:52:13;;;;;;;3.40;1.30;;;;;;;7.06;100.00;96016.31;4995036;28;20372;-65
2022/01/30 10:54:39;;;;;;;1.10;0.85;;;;;;;7.05;100.00;96007.47;4990586;28;20038;-65
2022/01/30 10:57:05;;;;;;;3.08;1.20;;;;;;;6.92;100.00;96005.78;4994865;28;20042;-65
2022/01/30 10:59:31;;;;;;;3.15;0.93;;;;;;;7.07;100.00;95997.44;4994422;28;20072;-65
2022/01/30 11:02:13;;;;;;;5.38;1.70;;;;;;;7.22;100.00;96000.56;4994601;28;20031;-66
2022/01/30 11:04:39;;;;;;;2.25;1.02;;;;;;;7.22;100.00;95997.09;4989145;28;20034;-65
2022/01/30 11:07:05;;;;;;;3.75;1.27;;;;;;;7.23;100.00;95983.53;5009684;28;20121;-64
2022/01/30 11:09:42;;;;;;;2.53;1.40;;;;;;;7.11;100.00;95981.84;4980726;28;20033;-64
2022/01/30 11:12:15;;;;;;;2.03;1.00;;;;;;;7.26;100.00;95977.75;4994317;28;20477;-64
2022/01/30 11:17:10;;;;;;;3.17;1.23;;;;;;;7.71;100.00;95958.78;4993675;28;20026;-65
2022/01/30 11:19:42;;;;;;;2.22;1.40;;;;;;;7.80;100.00;95959.25;4991232;28;20565;-64
2022/01/30 11:22:10;;;;;;;4.07;1.50;;;;;;;7.76;100.00;95950.91;4992567;28;20031;-64
2022/01/30 11:25:07;;;;;;;6.75;1.30;;;;;;;7.97;100.00;95956.78;4990146;28;20077;-64
2022/01/30 11:27:34;;;;;;;2.85;1.23;;;;;;;8.42;100.00;95938.47;4985481;28;20513;-64
2022/01/30 11:30:01;;;;;;;1.27;1.10;;;;;;;8.59;100.00;95943.97;4990837;28;20116;-65
2022/01/30 11:32:27;;;;;;;3.53;1.35;;;;;;;8.92;100.00;95930.03;4992612;28;20029;-64
2022/01/30 11:34:55;;;;;;;3.70;1.23;;;;;;;9.25;100.00;95937.44;4993578;28;20048;-64
2022/01/30 11:37:23;;;;;;;3.72;1.05;;;;;;;9.49;100.00;95930.97;4993861;28;20034;-65
2022/01/30 11:39:52;;;;;;;2.05;1.10;;;;;;;9.78;100.00;95942.50;4992081;28;20033;-64
2022/01/30 11:42:21;;;;;;;2.72;1.02;;;;;;;9.59;100.00;95944.53;4992554;28;20064;-64
2022/01/30 11:45:09;;;;;;;1.90;1.13;;;;;;;9.29;100.00;95960.78;4991205;28;20030;-64
2022/01/30 11:47:52;;;;;;;2.45;1.30;;;;;;;8.96;100.00;95968.59;4987934;28;20065;-64
2022/01/30 11:50:25;;;;;;;2.38;1.30;;;;;;;8.55;100.00;95959.63;4993608;28;20026;-65
2022/01/30 11:52:54;;;;;;;;;;;;;;;8.49;100.00;95965.09;4993595;28;20054;-65
2022/01/30 11:55:39;;;;;;;2.50;1.13;;;;;;;8.61;100.00;95961.38;4983306;28;20328;-64
2022/01/30 11:58:05;;;;;;;2.92;1.20;;;;;;;8.63;100.00;95969.16;4992415;28;20033;-64
2022/01/30 12:00:47;;;;;;;3.63;1.25;;;;;;;8.50;100.00;95970.19;4992749;28;20385;-64
2022/01/30 12:03:25;;;;;;;1.97;1.37;;;;;;;8.51;100.00;95961.13;4980105;28;20490;-64
2022/01/30 12:05:51;;;;;;;3.40;1.10;;;;;;;8.48;100.00;95966.13;4991340;28;20292;-63
2022/01/30 12:08:46;;;;;;;2.95;0.93;;;;;;;8.30;100.00;95970.47;4991561;28;20058;-64
2022/01/30 12:11:33;;;;;;;1.70;1.13;;;;;;;8.07;100.00;95965.88;4991550;28;20026;-64
2022/01/30 12:13:59;;;;;;;1.88;1.05;;;;;;;7.88;100.00;95955.47;4992409;28;20088;-63
2022/01/30 12:16:45;;;;;;;2.50;1.20;;;;;;;7.75;100.00;95948.47;4992030;28;20014;-63
2022/01/30 12:19:16;;;;;;;2.85;1.08;;;;;;;7.69;100.00;95952.03;4991568;28;20445;-62
2022/01/30 12:21:42;;;;;;;0.98;0.90;;;;;;;7.64;100.00;95944.72;4992014;28;20066;-63
2022/01/30 12:24:22;;;;;;;3.90;1.30;;;;;;;7.64;100.00;95943.91;4990069;28;20056;-63
2022/01/30 12:26:52;;;;;;;4.28;1.17;;;;;;;7.69;100.00;95936.03;4992843;28;20030;-62
2022/01/30 12:29:34;;;;;;;1.50;1.10;;;;;;;7.71;100.00;95924.13;4992030;28;20026;-63
2022/01/30 12:32:19;;;;;;;1.40;1.05;;;;;;;7.79;100.00;95928.31;4991692;28;20031;-63
2022/01/30 12:34:45;;;;;;;3.47;1.50;;;;;;;8.02;100.00;95917.69;4990369;28;20121;-62
2022/01/30 12:37:19;;;;;;;4.50;1.70;;;;;;;8.50;100.00;95915.97;4992321;28;20141;-63
2022/01/30 12:39:44;;;;;;;2.40;1.50;;;;;;;8.73;100.00;95899.13;4992185;28;20026;-63
2022/01/30 12:42:16;;;;;;;4.63;1.30;;;;;;;8.85;100.00;95905.28;4991661;28;20026;-64
2022/01/30 12:44:44;;;;;;;1.25;0.80;;;;;;;8.98;100.00;95900.50;4991168;28;20030;-64
2022/01/30 12:47:09;;;;;;;2.95;1.20;;;;;;;9.00;100.00;95906.41;4991351;28;21167;-63